Time;durP1;ratioP1;P1;durP2;ratioP2;P2;SDS_P1;SDS_P2;PMS_P1;PMS_P2;Temp;Humidity;BMP_temperature;BMP_pressure;BME280_temperature;BME280_humidity;BME280_pressure;Samples;Min_cycle;Max_cycle;Signal;HPM_P1;HPM_P2
2022/04/09 00:01:39;;;;;;;1.10;0.40;;;;;;;15.84;56.25;96911.72;4457788;32;20136;-89
2022/04/09 00:04:05;;;;;;;3.10;0.70;;;;;;;15.70;56.96;96910.50;4472009;32;20456;-91
2022/04/09 00:06:30;;;;;;;1.67;0.52;;;;;;;15.80;56.36;96906.87;4457854;32;20092;-90
2022/04/09 00:08:56;;;;;;;4.30;0.60;;;;;;;15.68;56.26;96923.09;4471914;32;20197;-89
2022/04/09 00:11:21;;;;;;;1.37;0.40;;;;;;;15.51;55.57;96921.34;4458001;32;20483;-91
2022/04/09 00:13:47;;;;;;;0.85;0.50;;;;;;;15.60;55.02;96917.75;4471773;32;20101;-91
2022/04/09 00:16:13;;;;;;;1.60;0.50;;;;;;;15.67;54.71;96892.22;4471874;32;20085;-90
2022/04/09 00:18:38;;;;;;;3.95;0.60;;;;;;;15.73;54.92;96896.09;4471449;32;20077;-90
2022/04/09 00:21:04;;;;;;;1.08;0.57;;;;;;;15.54;55.24;96887.38;4471557;32;20349;-90
2022/04/09 00:23:29;;;;;;;2.05;0.85;;;;;;;15.70;54.48;96881.28;4457296;32;20393;-90
2022/04/09 00:25:54;;;;;;;2.55;0.60;;;;;;;15.77;55.16;96881.50;4470610;32;20123;-91
2022/04/09 00:28:20;;;;;;;3.12;0.70;;;;;;;15.81;55.36;96872.19;4454818;32;20097;-89
2022/04/09 00:30:45;;;;;;;2.55;0.80;;;;;;;15.79;56.13;96874.19;4455914;32;20094;-90
2022/04/09 00:33:10;;;;;;;3.47;0.98;;;;;;;15.79;55.81;96860.09;4455796;32;20356;-88
2022/04/09 00:35:36;;;;;;;3.15;0.93;;;;;;;15.77;56.41;96868.22;4455894;32;20084;-91
2022/04/09 00:38:02;;;;;;;5.15;1.05;;;;;;;15.61;55.91;96869.00;4455680;32;20136;-91
2022/04/09 00:40:27;;;;;;;1.75;0.80;;;;;;;15.77;55.77;96862.09;4456014;32;20117;-90
2022/04/09 00:42:53;;;;;;;6.05;1.00;;;;;;;15.81;55.26;96866.88;4455954;32;20475;-92
2022/04/09 00:45:19;;;;;;;3.90;0.90;;;;;;;15.79;55.65;96865.41;4455843;32;20089;-91
2022/04/09 00:47:44;;;;;;;2.90;1.05;;;;;;;15.81;55.23;96861.59;4454805;32;20093;-90
2022/04/09 00:50:11;;;;;;;2.37;0.80;;;;;;;15.87;54.95;96857.44;4455900;32;20101;-90
2022/04/09 00:52:40;;;;;;;2.60;0.80;;;;;;;15.73;55.52;96872.19;4454818;32;20101;-91
2022/04/09 00:55:07;;;;;;;5.43;0.90;;;;;;;15.83;54.92;96886.16;4454837;32;20116;-91
2022/04/09 00:57:34;;;;;;;2.30;0.85;;;;;;;15.86;55.28;96895.62;4456090;32;20708;-88
2022/04/09 01:00:06;;;;;;;3.97;0.93;;;;;;;15.88;56.07;96901.59;4454665;32;20141;-89
2022/04/09 01:02:31;;;;;;;2.25;0.80;;;;;;;15.93;55.89;96909.88;4454576;32;20114;-90
2022/04/09 01:04:58;;;;;;;3.28;0.95;;;;;;;15.90;56.33;96912.88;4454364;32;20121;-90
2022/04/09 01:07:24;;;;;;;3.70;1.00;;;;;;;15.87;57.06;96891.97;4455708;32;20149;-90
2022/04/09 01:09:49;;;;;;;3.00;0.90;;;;;;;15.84;57.34;96885.16;4453854;32;20144;-89
2022/04/09 01:12:17;;;;;;;5.18;1.00;;;;;;;15.96;57.87;96871.56;4455721;32;20420;-88
2022/04/09 01:14:43;;;;;;;2.65;0.90;;;;;;;15.88;58.06;96851.97;4455749;32;20120;-89
2022/04/09 01:17:09;;;;;;;4.82;1.05;;;;;;;15.88;58.29;96857.28;4455097;32;20081;-90
2022/04/09 01:19:34;;;;;;;3.15;0.75;;;;;;;15.78;58.31;96853.97;4454051;32;20100;-90
2022/04/09 01:22:00;;;;;;;1.85;0.80;;;;;;;15.83;58.09;96832.22;4453448;32;20105;-90
2022/04/09 01:24:26;;;;;;;3.72;0.88;;;;;;;15.68;58.20;96843.47;4454937;32;20107;-90
2022/04/09 01:26:51;;;;;;;3.10;0.82;;;;;;;15.64;58.53;96842.09;4456778;32;20129;-90
2022/04/09 01:29:17;;;;;;;5.10;0.90;;;;;;;15.64;57.88;96842.09;4456841;32;20116;-89
2022/04/09 01:31:42;;;;;;;3.42;1.10;;;;;;;15.75;58.08;96853.47;4456853;32;20150;-90
2022/04/09 01:34:08;;;;;;;1.92;0.90;;;;;;;15.77;58.45;96870.06;4470859;32;20092;-90
2022/04/09 01:36:34;;;;;;;3.08;1.00;;;;;;;15.68;58.80;96901.00;4456799;32;20111;-91
2022/04/09 01:38:59;;;;;;;3.72;0.85;;;;;;;15.58;59.20;96908.28;4463812;32;20124;-91
2022/04/09 01:41:25;;;;;;;4.28;0.90;;;;;;;15.57;58.96;96890.69;4455260;32;20388;-90
2022/04/09 01:43:50;;;;;;;6.70;2.10;;;;;;;15.55;59.64;96901.50;4454911;32;20097;-92
2022/04/09 01:46:16;;;;;;;3.35;1.12;;;;;;;15.46;60.34;96891.84;4455219;32;20108;-94
2022/04/09 01:48:41;;;;;;;3.42;1.00;;;;;;;15.47;60.38;96889.03;4440534;32;20381;-91
2022/04/09 01:51:06;;;;;;;3.47;1.00;;;;;;;15.46;60.57;96892.66;4455078;32;20090;-92
2022/04/09 01:53:34;;;;;;;5.12;1.00;;;;;;;15.48;60.20;96887.19;4455166;32;20420;-91
2022/04/09 01:56:00;;;;;;;5.12;0.90;;;;;;;15.44;60.33;96884.03;4454984;32;20077;-91
2022/04/09 01:58:25;;;;;;;3.30;1.08;;;;;;;15.35;60.79;96887.62;4454888;32;20271;-89
2022/04/09 02:00:57;;;;;;;3.60;0.80;;;;;;;15.33;61.17;96882.50;4454966;32;20093;-90
2022/04/09 02:03:23;;;;;;;3.50;0.80;;;;;;;15.26;61.38;96878.84;4455082;32;20089;-93
2022/04/09 02:05:48;;;;;;;5.90;0.75;;;;;;;15.16;61.56;96877.28;4454795;32;20073;-93
2022/04/09 02:08:14;;;;;;;5.37;1.25;;;;;;;15.08;62.08;96875.44;4469051;32;20146;-92
2022/04/09 02:10:39;;;;;;;3.00;0.77;;;;;;;15.16;61.82;96870.16;4470413;32;20128;-93
2022/04/09 02:13:11;;;;;;;4.53;1.00;;;;;;;15.14;62.00;96854.44;4456112;32;20134;-93
2022/04/09 02:15:36;;;;;;;5.18;0.90;;;;;;;15.08;62.03;96880.72;4470400;32;20119;-92
2022/04/09 02:18:02;;;;;;;6.47;1.00;;;;;;;15.05;62.40;96876.59;4456006;32;20105;-93
2022/04/09 02:20:27;;;;;;;4.85;1.00;;;;;;;15.10;62.02;96886.72;4454726;32;20133;-90
2022/04/09 02:22:52;;;;;;;3.53;1.00;;;;;;;15.08;62.36;96889.50;4442756;32;20368;-92
2022/04/09 02:25:18;;;;;;;3.75;0.85;;;;;;;15.12;62.36;96868.81;4456846;32;20135;-91
2022/04/09 02:27:44;;;;;;;7.10;0.98;;;;;;;15.01;62.75;96864.66;4456741;32;20125;-91
2022/04/09 02:30:10;;;;;;;3.30;0.90;;;;;;;15.04;62.86;96872.25;4456850;32;20132;-91
2022/04/09 02:32:48;;;;;;;4.47;0.70;;;;;;;14.94;63.36;96866.25;4455477;32;20165;-90
2022/04/09 02:35:14;;;;;;;5.20;1.02;;;;;;;14.97;63.26;96876.56;4456852;32;20085;-92
2022/04/09 02:37:40;;;;;;;2.10;0.70;;;;;;;15.01;62.78;96883.22;4456885;32;20113;-92
2022/04/09 02:40:06;;;;;;;5.50;1.20;;;;;;;14.92;63.02;96881.50;4456836;32;20475;-91
2022/04/09 02:42:31;;;;;;;5.03;1.15;;;;;;;14.91;63.67;96885.13;4456895;32;20458;-92
2022/04/09 02:44:58;;;;;;;5.37;1.20;;;;;;;14.88;64.14;96896.88;4457073;32;20085;-90
2022/04/09 02:47:23;;;;;;;6.47;1.40;;;;;;;14.82;64.50;96915.25;4456562;32;20159;-90
2022/04/09 02:49:49;;;;;;;5.55;1.58;;;;;;;14.75;64.78;96915.84;4456490;32;20764;-88
2022/04/09 02:52:14;;;;;;;6.10;1.42;;;;;;;14.67;65.16;96907.84;4470490;32;20115;-89
2022/04/09 02:54:40;;;;;;;6.93;1.67;;;;;;;14.66;65.51;96913.31;4472339;32;20424;-90
2022/04/09 02:57:05;;;;;;;5.50;1.50;;;;;;;14.73;65.37;96917.00;4472091;32;20158;-88
2022/04/09 02:59:30;;;;;;;4.55;1.50;;;;;;;14.79;65.37;96911.06;4472079;32;20115;-89
2022/04/09 03:01:58;;;;;;;5.62;2.12;;;;;;;14.75;65.49;96915.03;4457868;32;20084;-88
2022/04/09 03:04:23;;;;;;;4.68;1.52;;;;;;;14.77;65.62;96894.50;4472064;32;20080;-90
2022/04/09 03:06:49;;;;;;;3.87;1.15;;;;;;;14.79;65.45;96894.34;4457871;32;20658;-88
2022/04/09 03:09:14;;;;;;;3.80;1.30;;;;;;;14.77;65.22;96904.28;4472101;32;20352;-89
2022/04/09 03:11:40;;;;;;;5.53;1.40;;;;;;;14.63;65.67;96914.44;4471924;32;20145;-88
2022/04/09 03:14:05;;;;;;;4.50;1.30;;;;;;;14.69;65.49;96919.13;4471961;32;20352;-89
2022/04/09 03:16:32;;;;;;;6.03;1.40;;;;;;;14.81;65.33;96906.44;4457801;32;20096;-89
2022/04/09 03:18:57;;;;;;;5.32;1.40;;;;;;;14.84;64.78;96903.50;4471998;32;20119;-90
2022/04/09 03:21:23;;;;;;;3.28;1.12;;;;;;;14.86;64.20;96898.03;4471922;32;20073;-88
2022/04/09 03:23:48;;;;;;;6.25;1.55;;;;;;;14.91;64.08;96885.13;4471845;32;20081;-90
2022/04/09 03:26:13;;;;;;;4.32;1.17;;;;;;;14.86;63.96;96908.63;4472024;32;20123;-89
2022/04/09 03:28:39;;;;;;;3.35;0.90;;;;;;;14.64;64.24;96920.56;4471917;32;20171;-88
2022/04/09 03:31:05;;;;;;;3.50;0.95;;;;;;;14.78;64.29;96922.69;4472033;32;20424;-88
2022/04/09 03:33:31;;;;;;;3.20;0.90;;;;;;;14.71;63.95;96925.09;4457442;32;20085;-88
2022/04/09 03:35:56;;;;;;;3.40;1.02;;;;;;;14.76;63.69;96916.69;4457698;32;20139;-89
2022/04/09 03:38:22;;;;;;;3.53;0.95;;;;;;;14.69;63.72;96913.81;4471774;32;20093;-88
2022/04/09 03:40:47;;;;;;;1.77;0.70;;;;;;;14.70;63.79;96909.38;4471765;32;20110;-89
2022/04/09 03:43:13;;;;;;;2.83;0.77;;;;;;;14.73;63.19;96911.69;4471810;32;20428;-87
2022/04/09 03:45:38;;;;;;;2.72;0.90;;;;;;;14.75;63.46;96894.62;4471716;32;20128;-87
2022/04/09 03:48:05;;;;;;;2.72;0.80;;;;;;;14.69;63.33;96897.91;4471635;32;20448;-87
2022/04/09 03:50:30;;;;;;;3.85;0.90;;;;;;;14.70;63.08;96912.84;4457770;32;20180;-85
2022/04/09 03:52:57;;;;;;;3.58;0.70;;;;;;;14.70;62.38;96918.16;4466799;32;20429;-86
2022/04/09 03:55:22;;;;;;;2.17;0.85;;;;;;;14.52;62.70;96912.03;4456124;32;20097;-88
2022/04/09 03:57:47;;;;;;;2.78;0.77;;;;;;;14.58;62.47;96913.25;4456172;32;20399;-88
2022/04/09 04:00:17;;;;;;;2.45;0.60;;;;;;;14.62;62.55;96915.47;4460148;32;20131;-87
2022/04/09 04:02:42;;;;;;;2.15;0.70;;;;;;;14.54;62.96;96912.69;4471873;32;20156;-86
2022/04/09 04:05:08;;;;;;;2.95;0.70;;;;;;;14.55;63.10;96906.41;4458564;32;20093;-86
2022/04/09 04:07:34;;;;;;;1.55;0.40;;;;;;;14.62;62.84;96904.84;4455901;32;20629;-86
2022/04/09 04:10:04;;;;;;;3.35;0.70;;;;;;;14.65;62.64;96909.00;4442159;32;20143;-85
2022/04/09 04:12:29;;;;;;;0.88;0.45;;;;;;;14.61;62.64;96899.72;4444691;32;20477;-87
2022/04/09 04:14:55;;;;;;;3.58;0.57;;;;;;;14.54;62.69;96895.00;4471618;32;20085;-86
2022/04/09 04:17:20;;;;;;;4.15;0.55;;;;;;;14.57;62.77;96896.53;4471704;32;20088;-87
2022/04/09 04:19:46;;;;;;;3.50;0.70;;;;;;;14.40;62.45;96884.13;4471540;32;20402;-87
2022/04/09 04:22:11;;;;;;;1.48;0.50;;;;;;;14.55;62.58;96893.19;4471354;32;20105;-86
2022/04/09 04:24:37;;;;;;;4.95;0.82;;;;;;;14.56;62.18;96889.53;4471602;32;20135;-86
2022/04/09 04:27:04;;;;;;;3.37;0.73;;;;;;;14.56;61.95;96894.81;4463429;32;20147;-86
2022/04/09 04:29:30;;;;;;;3.35;0.82;;;;;;;14.53;62.69;96893.31;4455010;32;20150;-85
2022/04/09 04:31:55;;;;;;;2.87;0.70;;;;;;;14.52;62.89;96888.16;4455980;32;20380;-86
2022/04/09 04:34:21;;;;;;;2.30;0.80;;;;;;;14.55;63.42;96877.28;4456010;32;20105;-87
2022/04/09 04:36:46;;;;;;;8.05;1.10;;;;;;;14.61;63.67;96878.50;4456018;32;20452;-87
2022/04/09 04:39:12;;;;;;;5.05;1.33;;;;;;;14.65;63.87;96859.47;4455965;32;20093;-86
2022/04/09 04:41:38;;;;;;;5.30;1.58;;;;;;;14.65;64.35;96866.59;4455903;32;20097;-92
2022/04/09 04:44:04;;;;;;;6.87;1.80;;;;;;;14.69;64.25;96862.66;4454972;32;20139;-89
2022/04/09 04:46:29;;;;;;;3.12;1.20;;;;;;;14.80;64.00;96856.25;4455943;32;20101;-87
2022/04/09 04:48:55;;;;;;;5.45;1.33;;;;;;;14.80;64.19;96864.22;4455601;32;20463;-85
2022/04/09 04:51:20;;;;;;;3.22;1.20;;;;;;;14.77;64.21;96848.59;4455784;32;20119;-85
2022/04/09 04:53:46;;;;;;;5.53;1.20;;;;;;;14.85;63.88;96836.22;4455809;32;20433;-86
2022/04/09 04:56:13;;;;;;;3.37;1.20;;;;;;;14.90;63.35;96807.41;4455681;32;20102;-86
2022/04/09 04:58:38;;;;;;;2.15;1.10;;;;;;;14.91;63.12;96803.78;4455857;32;20111;-85
2022/04/09 05:01:03;;;;;;;4.60;1.15;;;;;;;14.88;63.26;96790.00;4454432;32;20089;-89
2022/04/09 05:03:29;;;;;;;2.87;1.00;;;;;;;14.87;63.16;96780.38;4455345;32;20189;-88
2022/04/09 05:05:55;;;;;;;4.28;1.25;;;;;;;14.92;62.67;96762.19;4455779;32;20108;-89
2022/04/09 05:08:20;;;;;;;3.25;1.10;;;;;;;14.91;62.73;96741.97;4455695;32;20117;-89
2022/04/09 05:10:45;;;;;;;2.30;1.10;;;;;;;14.91;62.06;96756.06;4455384;32;20084;-89
2022/04/09 05:13:11;;;;;;;2.75;0.98;;;;;;;14.87;62.29;96783.03;4455646;32;20120;-88
2022/04/09 05:15:36;;;;;;;4.05;1.20;;;;;;;14.85;62.37;96775.25;4454391;32;20105;-86
2022/04/09 05:18:02;;;;;;;2.53;1.20;;;;;;;14.87;62.32;96781.25;4455366;32;20348;-85
2022/04/09 05:20:27;;;;;;;3.12;1.10;;;;;;;14.86;62.52;96792.81;4454371;32;20084;-84
2022/04/09 05:22:53;;;;;;;2.72;1.02;;;;;;;14.91;62.16;96784.37;4454334;32;20117;-87
2022/04/09 05:25:19;;;;;;;3.17;1.15;;;;;;;14.86;62.53;96779.56;4455287;32;20088;-86
2022/04/09 05:27:45;;;;;;;2.75;1.02;;;;;;;14.92;62.68;96780.75;4467979;32;20414;-87
2022/04/09 05:30:11;;;;;;;3.35;1.20;;;;;;;15.01;62.33;96771.84;4471214;32;20085;-87
2022/04/09 05:32:39;;;;;;;5.50;1.58;;;;;;;15.11;61.91;96764.56;4470970;32;20448;-86
2022/04/09 05:35:04;;;;;;;;;;;;;;;15.13;61.90;96773.19;4471257;32;20124;-86
2022/04/09 05:37:31;;;;;;;4.12;1.40;;;;;;;15.13;62.06;96782.97;4471137;32;19980;-90
2022/04/09 05:39:56;;;;;;;3.78;1.08;;;;;;;15.19;61.74;96787.63;4470665;32;20089;-89
2022/04/09 05:42:23;;;;;;;4.37;1.30;;;;;;;15.28;61.32;96778.69;4470845;32;20132;-89
2022/04/09 05:44:49;;;;;;;4.72;1.20;;;;;;;15.30;61.08;96789.16;4470753;32;20101;-87
2022/04/09 05:47:15;;;;;;;2.90;0.77;;;;;;;15.44;60.73;96775.25;4443516;32;20131;-87
2022/04/09 05:49:40;;;;;;;5.05;1.33;;;;;;;15.43;60.13;96797.47;4456464;32;20084;-86
2022/04/09 05:52:06;;;;;;;3.33;0.95;;;;;;;15.41;59.95;96788.81;4470711;32;20081;-87
2022/04/09 05:54:31;;;;;;;4.20;1.25;;;;;;;15.30;60.06;96789.16;4470636;32;20080;-92
2022/04/09 05:56:59;;;;;;;3.87;0.90;;;;;;;15.16;60.53;96795.06;4458333;32;20080;-87
2022/04/09 05:59:26;;;;;;;3.72;1.17;;;;;;;15.14;60.49;96803.19;4470700;32;20076;-86
2022/04/09 06:01:52;;;;;;;4.43;1.17;;;;;;;14.98;60.78;96811.09;4458556;32;20100;-85
2022/04/09 06:04:20;;;;;;;5.47;1.70;;;;;;;14.90;60.97;96807.41;4472591;32;20191;-87
2022/04/09 06:06:46;;;;;;;5.12;1.62;;;;;;;14.76;61.74;96808.03;4455879;32;20146;-87
2022/04/09 06:09:11;;;;;;;6.35;1.87;;;;;;;14.75;61.92;96820.44;4442834;32;20084;-86
2022/04/09 06:11:37;;;;;;;6.53;1.40;;;;;;;14.81;61.81;96804.88;4447373;32;20127;-87
2022/04/09 06:14:02;;;;;;;4.57;1.20;;;;;;;14.51;62.83;96815.81;4458574;32;20127;-89
2022/04/09 06:16:27;;;;;;;5.90;1.40;;;;;;;14.55;62.88;96846.31;4472790;32;20081;-87
2022/04/09 06:18:53;;;;;;;3.87;1.10;;;;;;;14.51;62.90;96830.87;4458359;32;20092;-87
2022/04/09 06:21:18;;;;;;;3.87;1.17;;;;;;;14.60;62.24;96832.59;4455166;32;20105;-86
2022/04/09 06:23:44;;;;;;;3.25;1.15;;;;;;;14.53;62.51;96821.78;4466464;32;20364;-87
2022/04/09 06:26:09;;;;;;;4.25;1.23;;;;;;;14.61;62.69;96813.09;4456967;32;20139;-87
2022/04/09 06:28:35;;;;;;;4.95;1.20;;;;;;;14.71;62.96;96813.78;4456987;32;20360;-87
2022/04/09 06:31:00;;;;;;;3.78;1.40;;;;;;;14.77;62.52;96811.50;4468527;32;20440;-84
2022/04/09 06:33:26;;;;;;;7.18;1.73;;;;;;;14.86;62.63;96813.22;4458486;32;20154;-87
2022/04/09 06:35:51;;;;;;;2.62;1.00;;;;;;;14.97;62.23;96812.94;4472698;32;20080;-84
2022/04/09 06:38:16;;;;;;;2.90;1.00;;;;;;;14.99;61.58;96802.13;4457727;32;20371;-86
2022/04/09 06:40:42;;;;;;;3.28;1.08;;;;;;;15.06;61.61;96803.97;4457141;32;20127;-86
2022/04/09 06:43:07;;;;;;;4.22;1.50;;;;;;;15.05;61.55;96817.44;4456826;32;20150;-86
2022/04/09 06:45:33;;;;;;;3.20;1.00;;;;;;;15.19;61.02;96821.28;4466561;32;20084;-87
2022/04/09 06:47:59;;;;;;;4.93;1.23;;;;;;;15.12;60.84;96821.94;4472289;32;20080;-88
2022/04/09 06:50:24;;;;;;;3.75;1.30;;;;;;;15.17;60.72;96808.19;4464622;32;20349;-87
2022/04/09 06:52:50;;;;;;;2.65;0.90;;;;;;;15.13;60.79;96805.00;4456718;32;20093;-87
2022/04/09 06:55:15;;;;;;;3.22;0.90;;;;;;;15.23;60.87;96826.09;4456988;32;20099;-86
2022/04/09 06:57:41;;;;;;;2.83;0.90;;;;;;;15.28;60.70;96818.50;4456897;32;20321;-86
2022/04/09 07:00:12;;;;;;;3.95;1.20;;;;;;;15.43;60.10;96817.84;4460459;32;20110;-85
2022/04/09 07:02:38;;;;;;;5.25;1.10;;;;;;;15.39;60.27;96813.88;4444787;32;20556;-88
2022/04/09 07:05:04;;;;;;;3.78;1.10;;;;;;;15.26;60.26;96825.78;4472415;32;20201;-87
2022/04/09 07:07:30;;;;;;;3.58;0.90;;;;;;;15.33;60.01;96828.59;4471796;32;20080;-88
2022/04/09 07:10:11;;;;;;;3.47;1.30;;;;;;;15.32;60.36;96832.28;4457978;32;20548;-87
2022/04/09 07:12:38;;;;;;;2.65;0.88;;;;;;;15.36;60.59;96811.56;4471606;32;20096;-88
2022/04/09 07:15:04;;;;;;;3.65;1.17;;;;;;;15.43;60.10;96828.47;4472078;32;20115;-86
2022/04/09 07:17:30;;;;;;;4.07;1.20;;;;;;;15.48;60.24;96834.12;4471858;32;20133;-88
2022/04/09 07:20:07;;;;;;;2.65;0.98;;;;;;;15.44;60.47;96823.00;4457767;32;20109;-88
2022/04/09 07:22:34;;;;;;;2.12;0.98;;;;;;;15.52;60.11;96982.25;4456462;32;20131;-85
2022/04/09 07:25:00;;;;;;;5.68;1.17;;;;;;;15.10;60.65;97022.81;4457792;32;20085;-85
2022/04/09 07:27:39;;;;;;;3.25;0.80;;;;;;;14.84;60.33;97014.00;4457792;32;20144;-87
2022/04/09 07:30:07;;;;;;;2.97;0.80;;;;;;;14.52;58.89;97002.09;4457731;32;20096;-84
2022/04/09 07:32:32;;;;;;;4.32;0.73;;;;;;;14.06;60.86;97019.84;4471508;32;20150;-87
2022/04/09 07:34:58;;;;;;;1.67;0.80;;;;;;;14.15;60.97;97024.28;4471788;32;20436;-87
2022/04/09 07:37:23;;;;;;;1.75;0.50;;;;;;;14.24;61.08;97033.16;4471879;32;20439;-86
2022/04/09 07:39:49;;;;;;;1.67;0.50;;;;;;;14.16;60.37;97025.94;4471860;32;20085;-86
2022/04/09 07:42:14;;;;;;;2.97;0.57;;;;;;;14.07;60.58;97029.47;4461954;32;20080;-84
2022/04/09 07:44:40;;;;;;;1.50;0.70;;;;;;;14.07;60.78;97021.53;4441892;32;20452;-84
2022/04/09 07:47:05;;;;;;;3.20;0.60;;;;;;;14.02;61.28;97029.09;4456127;32;20081;-83
2022/04/09 07:49:30;;;;;;;0.80;0.40;;;;;;;13.88;61.50;97020.66;4455960;32;20093;-86
2022/04/09 07:51:56;;;;;;;4.05;0.52;;;;;;;13.68;62.01;97012.00;4463358;32;20118;-86
2022/04/09 07:54:22;;;;;;;2.28;0.40;;;;;;;13.84;62.11;96999.94;4471391;32;20136;-86
2022/04/09 07:56:48;;;;;;;1.67;0.50;;;;;;;13.76;60.53;96998.03;4471865;32;20105;-86
2022/04/09 07:59:13;;;;;;;1.75;0.40;;;;;;;13.86;60.66;96990.03;4471420;32;20105;-85
2022/04/09 08:01:39;;;;;;;1.85;0.30;;;;;;;13.73;60.95;96985.94;4464942;32;20436;-86
2022/04/09 08:04:04;;;;;;;2.37;0.50;;;;;;;14.03;60.60;96991.06;4454920;32;20089;-86
2022/04/09 08:06:30;;;;;;;1.42;0.37;;;;;;;14.18;60.93;96978.09;4456103;32;20198;-86
2022/04/09 08:08:55;;;;;;;0.90;0.40;;;;;;;14.36;60.28;96990.37;4454848;32;20132;-85
2022/04/09 08:11:20;;;;;;;3.60;0.60;;;;;;;14.67;60.14;96990.00;4459224;32;20157;-88
2022/04/09 08:13:46;;;;;;;1.98;0.50;;;;;;;14.78;58.84;96988.94;4457291;32;20119;-85
2022/04/09 08:16:12;;;;;;;1.83;0.52;;;;;;;14.79;58.55;96982.63;4471638;32;20210;-87
2022/04/09 08:18:39;;;;;;;4.53;0.80;;;;;;;14.65;58.34;96994.62;4456286;32;20427;-87
2022/04/09 08:21:06;;;;;;;3.17;0.77;;;;;;;14.78;58.94;97002.19;4469742;32;20108;-87
2022/04/09 08:23:31;;;;;;;3.80;0.95;;;;;;;14.78;59.13;97014.63;4456064;32;20101;-86
2022/04/09 08:25:57;;;;;;;2.72;0.60;;;;;;;14.87;58.47;97001.28;4455943;32;20137;-84
2022/04/09 08:28:24;;;;;;;3.20;0.60;;;;;;;14.97;58.03;97008.28;4456125;32;20097;-86
2022/04/09 08:30:51;;;;;;;1.87;0.53;;;;;;;14.83;58.14;97015.81;4454830;32;20152;-85
2022/04/09 08:33:17;;;;;;;2.67;0.62;;;;;;;15.02;58.23;97013.97;4455822;32;20093;-85
2022/04/09 08:35:43;;;;;;;2.35;0.52;;;;;;;15.12;59.04;97015.53;4455926;32;20085;-85
2022/04/09 08:38:09;;;;;;;0.52;0.40;;;;;;;14.91;58.64;97022.97;4455919;32;20101;-87
2022/04/09 08:40:36;;;;;;;1.33;0.45;;;;;;;14.88;58.95;97018.00;4455841;32;20149;-86
2022/04/09 08:43:02;;;;;;;1.80;0.70;;;;;;;14.85;59.29;97023.59;4469280;32;20119;-86
2022/04/09 08:45:27;;;;;;;4.05;0.90;;;;;;;14.71;59.11;97019.69;4457191;32;20455;-86
2022/04/09 08:47:54;;;;;;;2.95;0.60;;;;;;;14.70;59.06;97012.75;4471430;32;20105;-87
2022/04/09 08:50:20;;;;;;;1.27;0.40;;;;;;;14.42;59.36;97018.06;4457158;32;20158;-87
2022/04/09 08:52:45;;;;;;;1.95;0.73;;;;;;;14.70;59.47;97024.16;4445415;32;20520;-87
2022/04/09 08:55:14;;;;;;;2.75;0.70;;;;;;;14.73;59.38;97025.66;4441718;32;20163;-88
2022/04/09 08:57:41;;;;;;;3.60;1.05;;;;;;;14.69;60.22;97019.00;4455746;32;20480;-86
2022/04/09 09:00:13;;;;;;;2.40;0.95;;;;;;;14.74;60.20;97033.47;4455636;32;20453;-86
2022/04/09 09:02:49;;;;;;;2.92;0.85;;;;;;;14.75;60.24;97043.06;4466179;32;20589;-85
2022/04/09 09:05:28;;;;;;;3.40;1.17;;;;;;;14.83;60.00;97050.25;4471379;32;20123;-86
2022/04/09 09:07:53;;;;;;;7.07;1.33;;;;;;;14.84;59.38;97045.81;4446002;32;20120;-87
2022/04/09 09:10:19;;;;;;;5.47;1.20;;;;;;;14.86;60.92;97055.28;4471439;32;20489;-84
2022/04/09 09:12:56;;;;;;;2.62;1.00;;;;;;;14.90;59.89;97061.94;4471462;32;20089;-86
2022/04/09 09:15:21;;;;;;;3.40;1.02;;;;;;;14.70;60.56;97079.00;4457351;32;20107;-86
2022/04/09 09:17:49;;;;;;;1.75;0.90;;;;;;;14.69;60.09;97090.56;4455039;32;20116;-86
2022/04/09 09:20:15;;;;;;;2.95;0.93;;;;;;;14.70;59.48;97081.66;4454512;32;20102;-86
2022/04/09 09:22:42;;;;;;;2.60;1.17;;;;;;;14.32;60.79;97086.19;4455803;32;20463;-87
2022/04/09 09:25:10;;;;;;;3.67;1.00;;;;;;;14.37;60.73;97089.25;4455383;32;20436;-87
2022/04/09 09:27:36;;;;;;;4.68;1.48;;;;;;;14.34;61.05;97079.75;4454299;32;20533;-86
2022/04/09 09:30:04;;;;;;;3.00;1.10;;;;;;;14.02;59.79;97089.97;4458803;32;20448;-86
2022/04/09 09:32:30;;;;;;;3.30;1.12;;;;;;;13.92;58.54;97071.50;4470852;32;20112;-87
2022/04/09 09:34:56;;;;;;;6.12;1.10;;;;;;;13.94;59.10;97085.41;4456792;32;20489;-87
2022/04/09 09:37:24;;;;;;;3.58;1.20;;;;;;;13.64;59.21;97089.19;4470616;32;20505;-86
2022/04/09 09:39:49;;;;;;;2.80;1.02;;;;;;;13.34;60.07;97112.22;4456856;32;20096;-87
2022/04/09 09:42:19;;;;;;;3.50;1.10;;;;;;;13.34;60.27;97128.91;4465944;32;20489;-88
2022/04/09 09:44:44;;;;;;;1.87;0.90;;;;;;;13.24;60.48;97138.66;4455187;32;20120;-87
2022/04/09 09:47:12;;;;;;;2.83;0.90;;;;;;;13.20;60.19;97147.00;4455256;32;20491;-88
2022/04/09 09:49:56;;;;;;;3.55;1.12;;;;;;;12.90;59.49;97152.31;4445570;32;265576;-85
2022/04/09 09:52:29;;;;;;;2.90;1.10;;;;;;;12.42;59.03;97170.69;4455211;32;20105;-85
2022/04/09 09:54:56;;;;;;;3.58;1.08;;;;;;;12.22;59.80;97177.75;4463820;32;20515;-85
2022/04/09 09:57:23;;;;;;;2.53;1.20;;;;;;;11.86;60.05;97180.75;4470813;32;20108;-84
2022/04/09 09:59:51;;;;;;;3.25;1.37;;;;;;;11.63;60.13;97197.69;4443133;32;20108;-86
2022/04/09 10:02:23;;;;;;;2.45;1.20;;;;;;;11.55;61.23;97199.19;4464375;32;20159;-85
2022/04/09 10:04:50;;;;;;;1.92;1.20;;;;;;;11.09;61.45;97208.28;4456693;32;20205;-85
2022/04/09 10:07:16;;;;;;;2.50;1.23;;;;;;;11.02;61.49;97220.28;4457762;32;20112;-85
2022/04/09 10:09:41;;;;;;;3.10;1.45;;;;;;;10.29;62.61;97208.53;4454891;32;20092;-85
2022/04/09 10:12:12;;;;;;;2.42;1.40;;;;;;;10.46;62.51;97233.56;4454798;32;20115;-87
2022/04/09 10:14:39;;;;;;;4.72;1.62;;;;;;;10.34;62.42;97222.22;4456171;32;20089;-87
2022/04/09 10:17:06;;;;;;;3.60;1.40;;;;;;;10.49;62.47;97228.03;4464520;32;20097;-88
2022/04/09 10:19:32;;;;;;;4.72;1.60;;;;;;;10.46;61.85;97255.47;4461023;32;20115;-88
2022/04/09 10:21:58;;;;;;;3.85;1.60;;;;;;;10.49;60.98;97242.06;4468214;32;20424;-86
2022/04/09 10:24:26;;;;;;;4.37;1.80;;;;;;;10.52;61.03;97223.38;4441665;32;20101;-84
2022/04/09 10:26:54;;;;;;;3.00;1.40;;;;;;;10.22;61.00;97230.06;4440771;32;20109;-86
2022/04/09 10:29:20;;;;;;;2.87;1.50;;;;;;;10.11;60.61;97218.72;4441127;32;20127;-87
2022/04/09 10:31:51;;;;;;;5.30;1.85;;;;;;;10.32;60.64;97221.50;4454688;32;20093;-87
2022/04/09 10:34:17;;;;;;;4.12;2.08;;;;;;;10.30;61.30;97218.13;4440760;32;20146;-86
2022/04/09 10:36:42;;;;;;;5.22;1.98;;;;;;;10.00;60.20;97219.53;4466240;32;20454;-86
2022/04/09 10:39:45;;;;;;;3.72;1.73;;;;;;;10.38;59.62;97261.31;4454476;32;20100;-86
2022/04/09 10:42:48;;;;;;;5.30;1.80;;;;;;;10.18;59.83;97227.81;4451374;32;20456;-85
2022/04/09 10:45:14;;;;;;;3.90;1.90;;;;;;;10.07;59.65;97246.22;4456755;32;20128;-85
2022/04/09 10:48:03;;;;;;;3.80;1.70;;;;;;;10.27;58.83;97256.03;4442446;32;20163;-85
2022/04/09 10:50:49;;;;;;;;;;;;;;;9.99;57.71;97270.50;4457026;32;20439;-86
2022/04/09 10:53:16;;;;;;;3.97;1.60;;;;;;;10.17;58.64;97287.47;4456659;32;20355;-88
2022/04/09 10:55:42;;;;;;;4.05;1.60;;;;;;;10.35;57.16;97290.53;4442676;32;20089;-85
2022/04/09 10:58:10;;;;;;;3.35;1.60;;;;;;;10.14;57.89;97293.00;4442587;32;20144;-86
2022/04/09 11:00:37;;;;;;;4.60;1.48;;;;;;;10.37;57.23;97304.41;4454233;32;20135;-86
2022/04/09 11:03:30;;;;;;;3.22;1.42;;;;;;;10.05;57.61;97320.00;4472264;32;20141;-86
2022/04/09 11:06:38;;;;;;;2.80;1.30;;;;;;;9.84;57.89;97338.25;4472467;32;20111;-85
2022/04/09 11:09:04;;;;;;;2.58;1.10;;;;;;;9.98;56.17;97311.72;4454949;32;20104;-86
2022/04/09 11:11:29;;;;;;;4.03;1.30;;;;;;;10.20;56.22;97289.88;4456742;32;20122;-87
2022/04/09 11:13:55;;;;;;;3.08;1.25;;;;;;;10.38;55.89;97337.66;4455492;32;20361;-87
2022/04/09 11:16:20;;;;;;;3.85;1.40;;;;;;;10.19;56.10;97305.78;4456481;32;20138;-88
2022/04/09 11:18:47;;;;;;;2.95;1.30;;;;;;;9.91;56.01;97318.44;4456350;32;20376;-84
2022/04/09 11:21:12;;;;;;;2.90;1.20;;;;;;;9.78;56.39;97346.59;4456354;32;20512;-87
2022/04/09 11:23:38;;;;;;;3.40;1.30;;;;;;;9.76;57.28;97343.25;4455051;32;20127;-85
2022/04/09 11:26:03;;;;;;;4.45;1.70;;;;;;;9.59;57.25;97357.63;4456405;32;20097;-89
2022/04/09 11:28:37;;;;;;;3.70;1.33;;;;;;;9.73;55.99;97354.81;4455154;32;20120;-87
2022/04/09 11:31:06;;;;;;;5.85;1.60;;;;;;;9.68;56.65;97363.97;4456389;32;20206;-86
2022/04/09 11:33:31;;;;;;;6.28;1.50;;;;;;;9.29;57.72;97369.44;4456845;32;20115;-88